Tiempo atmosférico en la estación meteorológica de Candelaria, Santa Cruz de Tenerife (463 m.)



Fecha
DESCASC
Temp. máxima en grados centígrados (hora)
DESCASC
Temp. mínima en grados centígrados (hora)
DESCASC
Temp. media en grados centígrados
DESCASC
Racha de viento máxima en m/sg (hora)
DESCASC
Velocidad máxima media en intervalos de 10 minutos(hora)
DESCASC
Precipitaciones diarias en mm
DESCASC
Precipitaciones de 00:00 a 06:00 en mm
DESCASC
Precipitaciones de 06:00 a 12:00 en mm
DESCASC
Precipitaciones de 12:00 a 18:00 en mm
DESCASC
Precipitaciones de 18:00 a 24:00 en mm
DESCASC
06-07-2020 34.4 (11:30) 22.3 (01:10) 28.4 7.5 (13:30) 5.56 (13:30) 0 0 0 0 0
05-07-2020 30.9 (15:00) 19.9 (05:40) 25.4 7.22 (22:00) 5 (21:50) 0 0 0 0 0
04-07-2020 26.5 (12:50) 18.6 (05:50) 22.6 9.72 (15:00) 6.11 (15:00) 0 0 0 0 0
03-07-2020 26.2 (15:10) 19.1 (01:50) 22.7 8.61 (15:20) 5.56 (15:40) 0 0 0 0 0
02-07-2020 27 (15:50) 17.8 (00:00) 22.4 8.89 (18:50) 6.67 (18:50) 0 0 0 0 0
01-07-2020 25 (12:10) 16.1 (00:00) 20.6 7.5 (21:10) 5.56 (21:10) 0 0 0 0 0
30-06-2020 23.6 (13:30) 17.1 (00:00) 20.4 8.06 (12:20) 5.28 (17:10) 0 0 0 0 0
29-06-2020 27.2 (15:10) 17.2 (00:00) 22.2 9.44 (13:30) 6.11 (16:20) 0 0 0 0 0
28-06-2020 26.5 (16:20) 17.1 (00:00) 21.8 11.67 (13:50) 6.39 (14:00) 0 0 0 0 0
27-06-2020 23.2 (17:20) 15.9 (00:00) 19.6 10.83 (12:30) 6.39 (12:30) 0 0 0 0 0
26-06-2020 24.6 (14:30) 16.7 (00:00) 20.7 11.67 (13:20) 7.78 (16:10) 0 0 0 0 0
25-06-2020 26.5 (18:00) 16.4 (00:00) 21.4 10.56 (12:10) 6.11 (12:10) 0 0 0 0 0
24-06-2020 27.1 (14:50) 16.8 (00:00) 21.9 10 (13:20) 6.67 (13:50) 0 0 0 0 0
23-06-2020 27.2 (16:10) 15.6 (00:00) 21.4 10 (16:20) 6.11 (16:30) 0 0 0 0 0
22-06-2020 24 (14:40) 15.7 (00:00) 19.8 7.78 (12:10) 4.72 (23:59) 0 0 0 0 0
21-06-2020 23.2 (14:50) 15.1 (00:00) 19.2 9.44 (13:50) 6.39 (13:50) 0 0 0 0 0
20-06-2020 24.6 (13:50) 15.6 (00:00) 20.1 10.83 (12:00) 5.28 (16:20) 0 0 0 0 0
19-06-2020 23.9 (12:40) 16.5 (00:00) 20.2 12.22 (11:30) 8.61 (11:00) 0 0 0 0 0
18-06-2020 26 (16:10) 15.7 (06:30) 20.8 12.22 (17:00) 7.78 (17:10) 0.6 0.6 0 0 0
17-06-2020 24.7 (00:20) 18.4 (00:00) 21.6 21.39 (00:10) 12.22 (00:10) 4.4 1.2 0.4 0.2 2.6
16-06-2020 27.3 (18:40) 19.2 (00:00) 23.3 27.78 (22:00) 15.28 (23:59) 0 0 0 0 0
15-06-2020 22.5 (03:40) 17.8 (00:00) 20.1 7.78 (03:40) 3.89 (06:40) 0.2 0.2 0 0 0
14-06-2020 22.9 (14:10) 14.6 (00:00) 18.8 6.11 (12:30) 4.17 (02:40) 0 0 0 0 0
13-06-2020 21.9 (15:50) 14.8 (00:00) 18.3 7.5 (14:30) 4.44 (04:10) 0 0 0 0 0
12-06-2020 20.4 (11:10) 14.9 (00:00) 17.6 6.11 (15:00) 3.61 (15:00) 0 0 0 0 0
11-06-2020 17.6 (11:50) 15.7 (00:00) 16.7 6.11 (04:10) 4.44 (04:10) 0.2 0 0.2 0 0

Gráficas

Temp. máximas Temp. mínimas Temp. medias Precipitaciones Rachas de viento máximas Velocidades máximas media en intervalos de 10 minutos

Datos horarios

Fecha y hora oficial Temperatura (ºC) Velocidad del viento (km/h) Dirección del viento Racha (km/h) Dirección de racha Precipitación (mm) Presión (hPa) Tendencia (hPa) Humedad (%)
2020-07-10 23:00:00 -- -- -- -- -- -- -- -- --
2020-07-10 22:00:00 -- -- -- -- -- -- -- -- --
2020-07-10 21:00:00 22.8 2 Norte 13 Oeste 0 -- -- 65
2020-07-10 20:00:00 23.3 11 Oeste 17 Noroeste 0 -- -- 65
2020-07-10 19:00:00 24.8 14 Oeste 22 Oeste 0 -- -- 59
2020-07-10 18:00:00 25.9 16 Oeste 25 Oeste 0 -- -- 56
2020-07-10 17:00:00 26 13 Sudoeste 21 Sudoeste 0 -- -- 56
2020-07-10 16:00:00 26.7 11 Sudoeste 24 Sudoeste 0 -- -- 53
2020-07-10 15:00:00 26.1 15 Oeste 27 Oeste 0 -- -- 54
2020-07-10 14:00:00 26.9 14 Oeste 24 Sudoeste 0 -- -- 54
2020-07-10 13:00:00 25.8 12 Oeste 23 Sudoeste 0 -- -- 57
2020-07-10 12:00:00 24.7 15 Oeste 27 Sudoeste 0 -- -- 59
2020-07-10 11:00:00 24.3 16 Oeste 26 Oeste 0 -- -- 59
2020-07-10 10:00:00 23.1 12 Oeste 25 Noroeste 0 -- -- 62
2020-07-10 09:00:00 20.5 20 Noroeste 33 Noroeste 0 -- -- 71
2020-07-10 08:00:00 21.1 8 Oeste 18 Noroeste 0 -- -- 57
2020-07-10 07:00:00 19.1 15 Noroeste 29 Noroeste 0 -- -- 66
2020-07-10 06:00:00 20 12 Noroeste 27 Noroeste 0 -- -- 56
2020-07-10 05:00:00 20.3 16 Noroeste 26 Noroeste 0 -- -- 58
2020-07-10 04:00:00 23.4 3 Sudoeste 21 Sudeste 0 -- -- 38
2020-07-10 03:00:00 24.7 6 Este 23 Sur 0 -- -- 31
2020-07-10 02:00:00 22.3 9 Noroeste 23 Noroeste 0 -- -- 57
2020-07-10 01:00:00 19.4 18 Noroeste 34 Noroeste 0 -- -- 71
2020-07-10 00:00:00 19.2 24 Noroeste 36 Noroeste 0 -- -- 75
2020-07-09 23:00:00 19.6 18 Noroeste 28 Noroeste 0 -- -- 74
2020-07-09 22:00:00 19.8 17 Noroeste 29 Noroeste 0 -- -- 77
2020-07-09 21:00:00 20.4 15 Noroeste 23 Noroeste 0 -- -- 76
2020-07-09 20:00:00 22.1 11 Oeste 21 Oeste 0 -- -- 70
2020-07-09 19:00:00 23.4 12 Oeste 19 Oeste 0 -- -- 65
2020-07-09 18:00:00 23.4 8 Sudoeste 16 Sudoeste 0 -- -- 65
2020-07-09 17:00:00 24.9 9 Sudoeste 18 Sudoeste 0 -- -- 59
2020-07-09 16:00:00 25.5 10 Sudoeste 18 Sudoeste 0 -- -- 57
2020-07-09 15:00:00 25.3 8 Sur 18 Sur 0 -- -- 60
2020-07-09 14:00:00 26 9 Sur 16 Sudoeste 0 -- -- 59
2020-07-09 13:00:00 25.3 7 Sur 15 Sudeste 0 -- -- 61
2020-07-09 12:00:00 23.9 8 Sur 14 Sur 0 -- -- 66
2020-07-09 11:00:00 24.1 7 Sur 13 Sudoeste 0 -- -- 65
2020-07-09 10:00:00 23.8 6 Sudoeste 16 Noroeste 0 -- -- 65
2020-07-09 09:00:00 21 11 Oeste 19 Oeste 0 -- -- 73
2020-07-09 08:00:00 19.8 16 Noroeste 20 Noroeste 0 -- -- 75
2020-07-09 07:00:00 23.2 4 Este 8 Noroeste 0 -- -- 25
2020-07-09 06:00:00 23 3 Nordeste 10 Sudeste 0 -- -- 29
2020-07-09 05:00:00 23.1 4 Noroeste 9 Oeste 0 -- -- 26
2020-07-09 04:00:00 24 3 Nordeste 10 Oeste 0 -- -- 24
2020-07-09 03:00:00 23.5 3 Noroeste 11 Noroeste 0 -- -- 29
2020-07-09 02:00:00 23.4 0 Calma 8 Norte 0 -- -- 41
2020-07-09 01:00:00 23.7 3 Este 6 Norte 0 -- -- 33
2020-07-09 00:00:00 23.5 2 Noroeste 8 Norte 0 -- -- 44
2020-07-08 23:00:00 23.6 4 Noroeste 6 Noroeste 0 -- -- 57
2020-07-08 22:00:00 24.3 0 Calma 5 Oeste 0 -- -- 56
2020-07-08 21:00:00 24.2 4 Noroeste 7 Sudoeste 0 -- -- 58
2020-07-08 20:00:00 25.2 4 Oeste 10 Sudoeste 0 -- -- 56
2020-07-08 19:00:00 25.3 6 Sudoeste 11 Sudoeste 0 -- -- 57
2020-07-08 18:00:00 27.1 6 Sudoeste 19 Oeste 0 -- -- 51
2020-07-08 17:00:00 26.9 12 Oeste 25 Oeste 0 -- -- 53
2020-07-08 16:00:00 27.8 17 Oeste 22 Oeste 0 -- -- 52
2020-07-08 15:00:00 30.2 10 Sudoeste 17 Sur 0 -- -- 48
2020-07-08 14:00:00 32.4 10 Sudoeste 16 Oeste 0 -- -- 43
2020-07-08 13:00:00 31.5 10 Sudoeste 15 Oeste 0 -- -- 46
2020-07-08 12:00:00 31.2 8 Oeste 13 Oeste 0 -- -- 46
2020-07-08 11:00:00 32.6 4 Sudoeste 12 Sudoeste 0 -- -- 43
2020-07-08 10:00:00 34.8 4 Sudeste 8 Sudeste 0 -- -- 24
2020-07-08 09:00:00 32.4 0 Calma 16 Norte 0 -- -- 15
2020-07-08 08:00:00 30.4 6 Este 15 Nordeste 0 -- -- 16
2020-07-08 07:00:00 29.3 6 Este 15 Norte 0 -- -- 17
2020-07-08 06:00:00 28.1 10 Norte 14 Norte 0 -- -- 20
2020-07-08 05:00:00 27.1 7 Norte 12 Norte 0 -- -- 24
2020-07-08 04:00:00 27 5 Noroeste 9 Norte 0 -- -- 26
2020-07-08 03:00:00 27.3 5 Noroeste 13 Norte 0 -- -- 26
2020-07-08 02:00:00 27.7 7 Norte 13 Norte 0 -- -- 27
2020-07-08 01:00:00 26.7 2 Nordeste 12 Noroeste 0 -- -- 38
2020-07-08 00:00:00 26.1 8 Noroeste 12 Noroeste 0 -- -- 53
2020-07-07 23:00:00 26.3 2 Este 9 Norte 0 -- -- 50
2020-07-07 22:00:00 26.5 3 Nordeste 8 Sudeste 0 -- -- 55
2020-07-07 21:00:00 28 5 Este 6 Este 0 -- -- 48
2020-07-07 20:00:00 28.5 2 Oeste 8 Sudeste 0 -- -- 56
2020-07-07 19:00:00 29.3 4 Sur 9 Sudeste 0 -- -- 53
2020-07-07 18:00:00 30.2 5 Sudeste 12 Sur 0 -- -- 45
2020-07-07 17:00:00 30.5 6 Sudeste 15 Sudeste 0 -- -- 51
2020-07-07 16:00:00 30.9 10 Sudeste 18 Sudeste 0 -- -- 50
2020-07-07 15:00:00 29.8 8 Sur 15 Sudoeste 0 -- -- 54
2020-07-07 14:00:00 30.7 9 Oeste 16 Sudoeste 0 -- -- 49
2020-07-07 13:00:00 31.1 8 Sudoeste 13 Sur 0 -- -- 47
2020-07-07 12:00:00 30.8 6 Sur 17 Sudoeste 0 -- -- 46
2020-07-07 11:00:00 32.3 5 Sudoeste 12 Oeste 0 -- -- 30
2020-07-07 10:00:00 -- -- -- -- -- -- -- -- --
2020-07-07 09:00:00 27.3 5 Noroeste 13 Sur 0 -- -- 38
2020-07-07 08:00:00 28.5 3 Este 12 Nordeste 0 -- -- 27
2020-07-07 07:00:00 27.5 8 Nordeste 13 Nordeste 0 -- -- 26
2020-07-07 06:00:00 27.2 3 Norte 17 Noroeste 0 -- -- 28
2020-07-07 05:00:00 27.8 5 Oeste 12 Oeste 0 -- -- 32
2020-07-07 04:00:00 27.5 3 Sudeste 9 Norte 0 -- -- 33
2020-07-07 03:00:00 26.3 3 Oeste 6 Noroeste 0 -- -- 38
2020-07-07 02:00:00 27.5 3 Nordeste 9 Nordeste 0 -- -- 28
2020-07-07 01:00:00 26.5 4 Sudeste 7 Norte 0 -- -- 44
2020-07-07 00:00:00 26.3 4 Este 6 Sudeste 0 -- -- 41
2020-07-06 23:00:00 26.7 8 Norte 13 Noroeste 0 -- -- 47
2020-07-06 22:00:00 27.2 2 Norte 5 Norte 0 -- -- 48
2020-07-06 21:00:00 28.1 2 Sur 6 Sudeste 0 -- -- 47
2020-07-06 20:00:00 29.7 4 Oeste 8 Sudoeste 0 -- -- 46
2020-07-06 19:00:00 30.4 3 Oeste 12 Sudoeste 0 -- -- 49
2020-07-06 18:00:00 30.7 8 Oeste 16 Sudoeste 0 -- -- 49
2020-07-06 17:00:00 31.7 9 Oeste 20 Sur 0 -- -- 44
2020-07-06 16:00:00 32.7 5 Sudoeste 18 Sur 0 -- -- 34
2020-07-06 15:00:00 30.2 10 Oeste 19 Sudoeste 0 -- -- 50
2020-07-06 14:00:00 28.4 13 Oeste 27 Oeste 0 -- -- 52
2020-07-06 13:00:00 32.7 11 Sudoeste 20 Sudoeste 0 -- -- 42
2020-07-06 12:00:00 34.2 5 Sudoeste 13 Sur 0 -- -- 21
2020-07-06 11:00:00 33 4 Sudoeste 12 Sur 0 -- -- 18
2020-07-06 10:00:00 32 5 Sur 11 Sur 0 -- -- 13
2020-07-06 09:00:00 28.8 11 Nordeste 22 Nordeste 0 -- -- 15
2020-07-06 08:00:00 27.7 13 Norte 17 Norte 0 -- -- 15
2020-07-06 07:00:00 27 10 Norte 15 Norte 0 -- -- 12
2020-07-06 06:00:00 27.3 6 Nordeste 19 Nordeste 0 -- -- 12
2020-07-06 05:00:00 27.3 8 Nordeste 18 Este 0 -- -- 11
2020-07-06 04:00:00 26.3 6 Nordeste 18 Sudeste 0 -- -- 18
2020-07-06 03:00:00 23.1 4 Este 10 Noroeste 0 -- -- 38
2020-07-06 02:00:00 22.4 5 Noroeste 11 Norte 0 -- -- 45
2020-07-06 01:00:00 22.6 8 Norte 10 Noroeste 0 -- -- 48
2020-07-06 00:00:00 23.1 3 Norte 6 Norte 0 -- -- 52
2020-07-05 23:00:00 23.5 0 Calma 20 Noroeste 0 -- -- 50
2020-07-05 22:00:00 23.8 16 Oeste 26 Oeste 0 -- -- 45
2020-07-05 21:00:00 26.3 4 Este 10 Sudeste 0 -- -- 48
2020-07-05 20:00:00 27.3 7 Oeste 14 Sudoeste 0 -- -- 42
2020-07-05 19:00:00 27.7 6 Oeste 14 Sudoeste 0 -- -- 44
2020-07-05 18:00:00 28.6 5 Sur 14 Sur 0 -- -- 45
2020-07-05 17:00:00 28.8 6 Sudoeste 21 Sudoeste 0 -- -- 42
2020-07-05 16:00:00 28.4 11 Sudoeste 21 Oeste 0 -- -- 44
2020-07-05 15:00:00 30.9 10 Sudoeste 17 Sur 0 -- -- 38
2020-07-05 14:00:00 30.8 9 Sudoeste 16 Sur 0 -- -- 35
2020-07-05 13:00:00 29.1 9 Sur 19 Sudoeste 0 -- -- 43
2020-07-05 12:00:00 29 7 Sudoeste 15 Sur 0 -- -- 36
2020-07-05 11:00:00 27.9 5 Sudoeste 12 Sur 0 -- -- 35
2020-07-05 10:00:00 24.1 12 Oeste 18 Noroeste 0 -- -- 52
2020-07-05 09:00:00 24.6 5 Este 11 Norte 0 -- -- 33
2020-07-05 08:00:00 21.7 7 Norte 15 Norte 0 -- -- 34
2020-07-05 07:00:00 20.7 11 Noroeste 17 Noroeste 0 -- -- 42
2020-07-05 06:00:00 20.3 13 Noroeste 16 Noroeste 0 -- -- 47
2020-07-05 05:00:00 20.4 11 Norte 13 Norte 0 -- -- 42
2020-07-05 04:00:00 20.1 4 Nordeste 13 Noroeste 0 -- -- 43
2020-07-05 03:00:00 20.4 7 Noroeste 16 Noroeste 0 -- -- 52
2020-07-05 02:00:00 21.2 8 Noroeste 12 Noroeste 0 -- -- 42
2020-07-05 01:00:00 21.7 3 Nordeste 13 Norte 0 -- -- 39
2020-07-05 00:00:00 21.4 6 Norte 15 Norte 0 -- -- 49
2020-07-04 23:00:00 20.7 10 Noroeste 17 Oeste 0 -- -- 58
2020-07-04 22:00:00 20.7 12 Noroeste 21 Noroeste 0 -- -- 60
2020-07-04 21:00:00 20.4 15 Noroeste 26 Oeste 0 -- -- 64
2020-07-04 20:00:00 21.9 13 Noroeste 26 Noroeste 0 -- -- 62
2020-07-04 19:00:00 23.8 16 Oeste 27 Noroeste 0 -- -- 54
2020-07-04 18:00:00 25.5 15 Oeste 24 Noroeste 0 -- -- 48
2020-07-04 17:00:00 25.6 12 Oeste 27 Oeste 0 -- -- 49
2020-07-04 16:00:00 25.5 14 Sudoeste 31 Sur 0 -- -- 48
2020-07-04 15:00:00 25.3 22 Sudeste 35 Sur 0 -- -- 49
2020-07-04 14:00:00 26.1 13 Sur 31 Sudoeste 0 -- -- 45
2020-07-04 13:00:00 26.3 13 Sudoeste 31 Oeste 0 -- -- 45
2020-07-04 12:00:00 25.3 18 Oeste 33 Noroeste 0 -- -- 50
2020-07-04 11:00:00 24.4 18 Oeste 31 Noroeste 0 -- -- 50
2020-07-04 10:00:00 23.4 14 Noroeste 24 Oeste 0 -- -- 51
2020-07-04 09:00:00 21.2 19 Noroeste 24 Noroeste 0 -- -- 57
2020-07-04 08:00:00 19.9 7 Noroeste 18 Noroeste 0 -- -- 36
2020-07-04 07:00:00 19.1 3 Este 18 Noroeste 0 -- -- 39
2020-07-04 06:00:00 18.7 11 Noroeste 23 Noroeste 0 -- -- 59
2020-07-04 05:00:00 19.1 8 Noroeste 16 Noroeste 0 -- -- 46
2020-07-04 04:00:00 18.8 11 Noroeste 24 Noroeste 0 -- -- 63
2020-07-04 03:00:00 19.9 15 Noroeste 20 Noroeste 0 -- -- 54
2020-07-04 02:00:00 20.4 7 Norte 17 Noroeste 0 -- -- 42
2020-07-04 01:00:00 21.1 5 Noroeste 14 Noroeste 0 -- -- 41
2020-07-04 00:00:00 21.3 10 Noroeste 14 Norte 0 -- -- 47
2020-07-03 23:00:00 21.2 14 Noroeste 19 Noroeste 0 -- -- 54
2020-07-03 22:00:00 21.1 14 Noroeste 22 Noroeste 0 -- -- 59
2020-07-03 21:00:00 21.6 14 Noroeste 19 Noroeste 0 -- -- 60
2020-07-03 20:00:00 22.2 14 Oeste 21 Oeste 0 -- -- 61
2020-07-03 19:00:00 23.1 7 Sudoeste 18 Sudoeste 0 -- -- 62
2020-07-03 18:00:00 24.5 15 Sur 25 Sudeste 0 -- -- 55
2020-07-03 17:00:00 25 8 Sur 24 Sudeste 0 -- -- 53
2020-07-03 16:00:00 25.2 13 Sudeste 31 Sudeste 0 -- -- 52
2020-07-03 15:00:00 25.8 12 Oeste 27 Sur 0 -- -- 55
2020-07-03 14:00:00 24.3 13 Sudoeste 23 Sur 0 -- -- 62
2020-07-03 13:00:00 23.7 12 Sur 23 Sur 0 -- -- 65
2020-07-03 12:00:00 24.9 10 Sudoeste 21 Sudoeste 0 -- -- 60
2020-07-03 11:00:00 23.8 16 Oeste 23 Oeste 0 -- -- 62
2020-07-03 10:00:00 22.9 14 Oeste 22 Oeste 0 -- -- 64
2020-07-03 09:00:00 22.4 4 Sur 13 Noroeste 0 -- -- 52
2020-07-03 08:00:00 20 12 Noroeste 20 Noroeste 0 -- -- 58
2020-07-03 07:00:00 19.9 2 Nordeste 14 Noroeste 0 -- -- 41
2020-07-03 06:00:00 20.5 13 Noroeste 20 Noroeste 0 -- -- 39
2020-07-03 05:00:00 20.5 8 Norte 10 Norte 0 -- -- 31
2020-07-03 04:00:00 21.3 8 Noroeste 16 Noroeste 0 -- -- 32
2020-07-03 03:00:00 21 3 Noroeste 14 Nordeste 0 -- -- 41
2020-07-03 02:00:00 19.4 12 Norte 23 Noroeste 0 -- -- 64
2020-07-03 01:00:00 20.2 10 Norte 22 Norte 0 -- -- 62
2020-07-03 00:00:00 20 12 Norte 25 Noroeste 0 -- -- 70
2020-07-02 23:00:00 19.9 5 Oeste 23 Noroeste 0 -- -- 72
2020-07-02 22:00:00 20.5 18 Oeste 27 Oeste 0 -- -- 73
2020-07-02 21:00:00 20.4 14 Noroeste 32 Noroeste 0 -- -- 76
2020-07-02 20:00:00 23.1 10 Oeste 24 Oeste 0 -- -- 66
2020-07-02 19:00:00 23 19 Noroeste 32 Noroeste 0 -- -- 67
2020-07-02 18:00:00 25.5 13 Sudoeste 22 Sudoeste 0 -- -- 58
2020-07-02 17:00:00 24.7 14 Oeste 30 Oeste 0 -- -- 61
2020-07-02 16:00:00 26.2 18 Oeste 26 Oeste 0 -- -- 58
2020-07-02 15:00:00 24.7 10 Sur 21 Sur 0 -- -- 62
2020-07-02 14:00:00 25 10 Sudoeste 25 Oeste 0 -- -- 61
2020-07-02 13:00:00 23.8 10 Sudoeste 23 Sur 0 -- -- 64
2020-07-02 12:00:00 23.4 8 Sur 27 Oeste 0 -- -- 65
2020-07-02 11:00:00 22.5 17 Oeste 30 Oeste 0 -- -- 69
2020-07-02 10:00:00 24.9 13 Oeste 22 Oeste 0 -- -- 55
2020-07-02 09:00:00 23.8 3 Oeste 12 Este 0 -- -- 47
2020-07-02 08:00:00 21.3 5 Noroeste 12 Norte 0 -- -- 37
2020-07-02 07:00:00 19.1 8 Norte 16 Noroeste 0 -- -- 50
2020-07-02 06:00:00 18.5 2 Este 21 Noroeste 0 -- -- 65
2020-07-02 05:00:00 17.8 4 Nordeste 27 Noroeste 0 -- -- 77
2020-07-02 04:00:00 18.8 17 Noroeste 23 Noroeste 0 -- -- 77
2020-07-02 03:00:00 19 11 Noroeste 23 Noroeste 0 -- -- 77
2020-07-02 02:00:00 18.8 15 Noroeste 26 Noroeste 0 -- -- 79
2020-07-02 01:00:00 19.6 3 Sudeste 17 Noroeste 0 -- -- 72
2020-07-02 00:00:00 19.1 15 Noroeste 23 Noroeste 0 -- -- 82
2020-07-01 23:00:00 19.7 6 Noroeste 15 Norte 0 -- -- 79
2020-07-01 22:00:00 19.4 11 Noroeste 27 Noroeste 0 -- -- 80
2020-07-01 21:00:00 19.9 16 Noroeste 27 Oeste 0 -- -- 80
2020-07-01 20:00:00 21.7 17 Oeste 25 Oeste 0 -- -- 73
2020-07-01 19:00:00 23.2 9 Sudoeste 21 Oeste 0 -- -- 67
2020-07-01 18:00:00 23.8 14 Oeste 24 Oeste 0 -- -- 64
2020-07-01 17:00:00 24 12 Oeste 20 Oeste 0 -- -- 63
2020-07-01 16:00:00 24 9 Sur 16 Sur 0 -- -- 65
2020-07-01 15:00:00 22.8 6 Sur 14 Sudeste 0 -- -- 68
2020-07-01 14:00:00 23.1 6 Sudeste 16 Sur 0 -- -- 66
2020-07-01 13:00:00 22.7 7 Sudoeste 24 Sudoeste 0 -- -- 67
2020-07-01 12:00:00 24.3 7 Oeste 25 Sudoeste 0 -- -- 60
2020-07-01 11:00:00 22.1 10 Sudoeste 23 Sudoeste 0 -- -- 67
2020-07-01 10:00:00 21.3 12 Oeste 20 Oeste 0 -- -- 69
2020-07-01 09:00:00 19.5 10 Oeste 22 Noroeste 0 -- -- 73
2020-07-01 08:00:00 17.8 18 Noroeste 25 Noroeste 0 -- -- 80
2020-07-01 07:00:00 17.2 8 Noroeste 13 Oeste 0 -- -- 64
2020-07-01 06:00:00 17.4 12 Noroeste 17 Noroeste 0 -- -- 69
2020-07-01 05:00:00 16.8 3 Nordeste 23 Noroeste 0 -- -- 68
2020-07-01 04:00:00 17.3 15 Noroeste 20 Noroeste 0 -- -- 83
2020-07-01 03:00:00 17 5 Norte 20 Noroeste 0 -- -- 77
2020-07-01 02:00:00 17.6 16 Noroeste 23 Noroeste 0 -- -- 84
2020-07-01 01:00:00 17.8 8 Oeste 17 Noroeste 0 -- -- 80
2020-07-01 00:00:00 18.2 0 Calma 21 Noroeste 0 -- -- 78
2020-06-30 23:00:00 18.7 14 Noroeste 25 Noroeste 0 -- -- 78
2020-06-30 22:00:00 19.3 14 Noroeste 26 Noroeste 0 -- -- 76
2020-06-30 21:00:00 20 6 Noroeste 24 Oeste 0 -- -- 79
2020-06-30 20:00:00 20.9 14 Noroeste 19 Noroeste 0 -- -- 75
2020-06-30 19:00:00 21.2 10 Sudoeste 24 Sudeste 0 -- -- 75
2020-06-30 18:00:00 21.9 13 Sudeste 26 Sudeste 0 -- -- 73
2020-06-30 17:00:00 22.9 14 Sur 25 Sudeste 0 -- -- 68
2020-06-30 16:00:00 23.4 13 Sur 23 Sur 0 -- -- 65
2020-06-30 15:00:00 22.5 14 Sur 26 Sur 0 -- -- 69
2020-06-30 14:00:00 23.5 16 Sur 28 Sudeste 0 -- -- 64
2020-06-30 13:00:00 23.3 17 Sudeste 29 Sudeste 0 -- -- 65
2020-06-30 12:00:00 23.2 12 Sur 27 Sur 0 -- -- 64
2020-06-30 11:00:00 22.6 10 Oeste 26 Oeste 0 -- -- 63
2020-06-30 10:00:00 22 11 Oeste 20 Oeste 0 -- -- 65
2020-06-30 09:00:00 19.8 15 Noroeste 27 Noroeste 0 -- -- 76
2020-06-30 08:00:00 18.5 16 Noroeste 23 Noroeste 0 -- -- 74
2020-06-30 07:00:00 17.4 14 Noroeste 21 Noroeste 0 -- -- 76
2020-06-30 06:00:00 17.8 14 Noroeste 21 Noroeste 0 -- -- 75
2020-06-30 05:00:00 18.5 17 Noroeste 23 Noroeste 0 -- -- 69
2020-06-30 04:00:00 18.5 15 Noroeste 21 Noroeste 0 -- -- 72
2020-06-30 03:00:00 17.8 5 Norte 21 Noroeste 0 -- -- 61
2020-06-30 02:00:00 18.2 4 Noroeste 21 Noroeste 0 -- -- 67
2020-06-30 01:00:00 19.2 13 Noroeste 20 Noroeste 0 -- -- 68
2020-06-30 00:00:00 19.8 10 Noroeste 22 Noroeste 0 -- -- 65
2020-06-29 23:00:00 20.1 15 Noroeste 26 Noroeste 0 -- -- 68
2020-06-29 22:00:00 21.1 5 Noroeste 16 Oeste 0 -- -- 62
2020-06-29 21:00:00 21.8 9 Noroeste 30 Noroeste 0 -- -- 62
2020-06-29 20:00:00 22.9 20 Noroeste 28 Noroeste 0 -- -- 62
2020-06-29 19:00:00 25.1 15 Noroeste 27 Oeste 0 -- -- 56
2020-06-29 18:00:00 25.9 19 Noroeste 27 Noroeste 0 -- -- 52
2020-06-29 17:00:00 26.5 18 Oeste 33 Oeste 0 -- -- 51
2020-06-29 16:00:00 26.6 18 Oeste 33 Oeste 0 -- -- 52
2020-06-29 15:00:00 26.7 12 Sudoeste 27 Oeste 0 -- -- 53
2020-06-29 14:00:00 25.9 11 Sudoeste 34 Sur 0 -- -- 54
2020-06-29 13:00:00 25.6 10 Sur 26 Noroeste 0 -- -- 57
2020-06-29 12:00:00 24.5 12 Sudoeste 30 Norte 0 -- -- 61
2020-06-29 11:00:00 23.8 11 Oeste 21 Oeste 0 -- -- 60
2020-06-29 10:00:00 22.1 16 Noroeste 24 Noroeste 0 -- -- 67
2020-06-29 09:00:00 20.1 16 Noroeste 23 Noroeste 0 -- -- 72
2020-06-29 08:00:00 18.6 13 Noroeste 20 Noroeste 0 -- -- 75
2020-06-29 07:00:00 17.5 10 Noroeste 21 Noroeste 0 -- -- 78
2020-06-29 06:00:00 17.6 13 Noroeste 22 Noroeste 0 -- -- 78
2020-06-29 05:00:00 17.8 13 Noroeste 26 Noroeste 0 -- -- 80
2020-06-29 04:00:00 18.1 15 Noroeste 27 Noroeste 0 -- -- 79
2020-06-29 03:00:00 18.1 10 Noroeste 21 Noroeste 0 -- -- 77
2020-06-29 02:00:00 18.4 14 Noroeste 23 Noroeste 0 -- -- 78
2020-06-29 01:00:00 18.7 12 Noroeste 28 Noroeste 0 -- -- 78
2020-06-29 00:00:00 19.4 14 Noroeste 27 Noroeste 0 -- -- 74
2020-06-28 23:00:00 19.8 19 Noroeste 27 Noroeste 0 -- -- 73
2020-06-28 22:00:00 20.4 14 Noroeste 25 Noroeste 0 -- -- 66
2020-06-28 21:00:00 21 14 Noroeste 23 Noroeste 0 -- -- 67
2020-06-28 20:00:00 22.6 19 Noroeste 28 Noroeste 0 -- -- 61
2020-06-28 19:00:00 24.6 15 Oeste 26 Oeste 0 -- -- 53
2020-06-28 18:00:00 25.9 11 Oeste 26 Sur 0 -- -- 46
2020-06-28 17:00:00 26 12 Sudoeste 28 Sudoeste 0 -- -- 44
2020-06-28 16:00:00 26.2 13 Oeste 31 Sur 0 -- -- 47
2020-06-28 15:00:00 25.9 21 Sur 40 Sur 0 -- -- 45
2020-06-28 14:00:00 25.5 23 Sur 42 Sudeste 0 -- -- 46
2020-06-28 13:00:00 25.4 16 Sur 32 Oeste 0 -- -- 50
2020-06-28 12:00:00 24.6 16 Oeste 28 Noroeste 0 -- -- 59
2020-06-28 11:00:00 24.3 12 Oeste 24 Oeste 0 -- -- 52
2020-06-28 10:00:00 22.6 16 Oeste 24 Oeste 0 -- -- 61
2020-06-28 09:00:00 21.6 12 Oeste 19 Oeste 0 -- -- 60
2020-06-28 08:00:00 19.3 10 Noroeste 18 Noroeste 0 -- -- 59
2020-06-28 07:00:00 17.9 11 Noroeste 20 Noroeste 0 -- -- 60
2020-06-28 06:00:00 17.8 12 Noroeste 19 Noroeste 0 -- -- 60
2020-06-28 05:00:00 17.6 14 Noroeste 21 Noroeste 0 -- -- 71
2020-06-28 04:00:00 17.6 6 Nordeste 23 Noroeste 0 -- -- 66
2020-06-28 03:00:00 17.6 14 Noroeste 20 Noroeste -- -- -- 65
2020-06-28 02:00:00 17.7 9 Norte 18 Noroeste 0 -- -- 65
2020-06-28 01:00:00 17.9 12 Norte 23 Noroeste 0 -- -- 71
2020-06-28 00:00:00 18.6 10 Noroeste 22 Noroeste 0 -- -- 69
2020-06-27 23:00:00 18.9 11 Noroeste 18 Noroeste 0 -- -- 65
2020-06-27 22:00:00 19.3 14 Noroeste 26 Noroeste 0 -- -- 72
2020-06-27 21:00:00 20.3 9 Noroeste 17 Noroeste 0 -- -- 64
2020-06-27 20:00:00 20.9 15 Noroeste 25 Noroeste 0 -- -- 66
2020-06-27 19:00:00 22.4 15 Oeste 26 Noroeste 0 -- -- 60
2020-06-27 18:00:00 22.8 13 Oeste 24 Sur 0 -- -- 58
2020-06-27 17:00:00 22.3 12 Sudoeste 29 Sudeste 0 -- -- 60
2020-06-27 16:00:00 22.2 14 Sur 28 Sudeste 0 -- -- 63
2020-06-27 15:00:00 22.2 11 Sudeste 33 Sudeste 0 -- -- 62
2020-06-27 14:00:00 22.6 19 Sudeste 32 Sudeste 0 -- -- 59
2020-06-27 13:00:00 21.9 20 Sudeste 39 Sur 0 -- -- 62
2020-06-27 12:00:00 22.9 16 Sur 33 Sur 0 -- -- 53
2020-06-27 11:00:00 22.3 11 Sudoeste 23 Sur 0 -- -- 53
2020-06-27 10:00:00 21.2 13 Oeste 21 Noroeste 0 -- -- 57
2020-06-27 09:00:00 19.3 10 Oeste 23 Oeste 0 -- -- 64
2020-06-27 08:00:00 17.6 6 Noroeste 22 Noroeste 0 -- -- 68
2020-06-27 07:00:00 16.2 13 Noroeste 18 Noroeste 0 -- -- 72
2020-06-27 06:00:00 16.4 15 Noroeste 22 Noroeste 0 -- -- 71
2020-06-27 05:00:00 16.5 13 Noroeste 23 Noroeste 0 -- -- 71
2020-06-27 04:00:00 16.8 15 Noroeste 24 Noroeste 0 -- -- 70
2020-06-27 03:00:00 16.9 14 Noroeste 23 Noroeste 0 -- -- 72
2020-06-27 02:00:00 16.5 5 Norte 21 Noroeste 0 -- -- 63
2020-06-27 01:00:00 17.7 10 Noroeste 18 Noroeste 0 -- -- 62
2020-06-27 00:00:00 17.8 13 Noroeste 17 Noroeste 0 -- -- 67
2020-06-26 23:00:00 18 10 Noroeste 26 Noroeste 0 -- -- 71
2020-06-26 22:00:00 18.5 14 Noroeste 24 Noroeste 0 -- -- 69
2020-06-26 21:00:00 19.4 15 Noroeste 27 Noroeste 0 -- -- 67
2020-06-26 20:00:00 21.9 11 Oeste 24 Noroeste 0 -- -- 56
2020-06-26 19:00:00 23.3 11 Sudoeste 25 Oeste 0 -- -- 49
2020-06-26 18:00:00 22.8 12 Sur 33 Sudeste 0 -- -- 51
2020-06-26 17:00:00 23.6 21 Sudeste 41 Sudeste 0 -- -- 51
2020-06-26 16:00:00 24.2 24 Sudeste 42 Sudeste 0 -- -- 50
2020-06-26 15:00:00 24.3 24 Sur 39 Sudeste 0 -- -- 47
2020-06-26 14:00:00 24.4 21 Sur 42 Sudeste 0 -- -- 49
2020-06-26 13:00:00 24.2 18 Sur 40 Sudeste 0 -- -- 46
2020-06-26 12:00:00 23.4 13 Sur 26 Sur 0 -- -- 53
2020-06-26 11:00:00 23.5 10 Oeste 23 Oeste 0 -- -- 52
2020-06-26 10:00:00 21.7 12 Noroeste 23 Noroeste 0 -- -- 54
2020-06-26 09:00:00 19.9 14 Oeste 28 Noroeste 0 -- -- 61
2020-06-26 08:00:00 18.2 16 Noroeste 25 Noroeste 0 -- -- 68
2020-06-26 07:00:00 16.9 13 Noroeste 21 Noroeste 0 -- -- 65
2020-06-26 06:00:00 16.8 14 Noroeste 21 Noroeste 0 -- -- 71
2020-06-26 05:00:00 16.8 11 Noroeste 20 Noroeste 0 -- -- 72
2020-06-26 04:00:00 16.9 9 Noroeste 21 Noroeste 0 -- -- 74
2020-06-26 03:00:00 17.3 10 Noroeste 21 Noroeste 0 -- -- 73
2020-06-26 02:00:00 17.7 13 Noroeste 21 Noroeste 0 -- -- 72
2020-06-26 01:00:00 18 10 Noroeste 23 Noroeste 0 -- -- 70
2020-06-26 00:00:00 18.3 15 Noroeste 24 Noroeste 0 -- -- 71
2020-06-25 23:00:00 19 15 Noroeste 23 Noroeste 0 -- -- 64
2020-06-25 22:00:00 19.5 17 Noroeste 29 Noroeste 0 -- -- 64
2020-06-25 21:00:00 20.5 16 Noroeste 26 Noroeste 0 -- -- 58
2020-06-25 20:00:00 22.8 16 Noroeste 23 Oeste 0 -- -- 49
2020-06-25 19:00:00 24.6 11 Sur 23 Sur 0 -- -- 35
2020-06-25 18:00:00 26.5 9 Sudoeste 22 Sudoeste 0 -- -- 34
2020-06-25 17:00:00 26.1 13 Sudoeste 25 Sur 0 -- -- 39
2020-06-25 16:00:00 25.7 14 Sur 31 Sur 0 -- -- 40
2020-06-25 15:00:00 26 16 Sur 29 Sur 0 -- -- 38
2020-06-25 14:00:00 24.9 14 Sur 34 Sudeste 0 -- -- 44
2020-06-25 13:00:00 24.5 17 Sur 38 Sudeste 0 -- -- 49
2020-06-25 12:00:00 24.4 18 Sudeste 30 Sudeste 0 -- -- 48
2020-06-25 11:00:00 23.4 14 Sur 25 Sur 0 -- -- 56
2020-06-25 10:00:00 21.9 10 Oeste 21 Noroeste 0 -- -- 59
2020-06-25 09:00:00 20 8 Oeste 20 Noroeste 0 -- -- 66
2020-06-25 08:00:00 18 15 Noroeste 23 Noroeste 0 -- -- 72
2020-06-25 07:00:00 17.1 17 Noroeste 22 Noroeste 0 -- -- 72
2020-06-25 06:00:00 17 12 Noroeste 20 Noroeste 0 -- -- 71
2020-06-25 05:00:00 17 12 Noroeste 21 Noroeste 0 -- -- 70
2020-06-25 04:00:00 17.3 8 Noroeste 23 Noroeste 0 -- -- 72
2020-06-25 03:00:00 16.7 8 Noroeste 12 Noroeste 0 -- -- 70
2020-06-25 02:00:00 17 6 Norte 14 Nordeste 0 -- -- 64
2020-06-25 01:00:00 18 3 Nordeste 10 Nordeste 0 -- -- 72
2020-06-25 00:00:00 18.2 3 Nordeste 11 Norte 0 -- -- 65
2020-06-24 23:00:00 18.8 5 Norte 21 Noroeste 0 -- -- 69
2020-06-24 22:00:00 19.6 9 Noroeste 16 Noroeste 0 -- -- 69
2020-06-24 21:00:00 20.6 10 Oeste 20 Oeste 0 -- -- 66
2020-06-24 20:00:00 22.5 12 Oeste 16 Oeste 0 -- -- 59
2020-06-24 19:00:00 22.8 9 Sur 26 Oeste 0 -- -- 57
2020-06-24 18:00:00 25 11 Sudoeste 27 Oeste 0 -- -- 52
2020-06-24 17:00:00 25.6 16 Oeste 30 Oeste 0 -- -- 50
2020-06-24 16:00:00 26 11 Sur 29 Oeste 0 -- -- 50
2020-06-24 15:00:00 27 15 Oeste 32 Oeste 0 -- -- 47
2020-06-24 14:00:00 26.6 19 Oeste 36 Noroeste 0 -- -- 46
2020-06-24 13:00:00 26.3 17 Noroeste 31 Noroeste 0 -- -- 45
2020-06-24 12:00:00 25.8 16 Oeste 23 Sudoeste 0 -- -- 47
2020-06-24 11:00:00 24.1 12 Sudoeste 19 Oeste 0 -- -- 50
2020-06-24 10:00:00 23.2 9 Sudoeste 15 Oeste 0 -- -- 52
2020-06-24 09:00:00 21.8 5 Sur 10 Sudeste 0 -- -- 56
2020-06-24 08:00:00 19.8 5 Noroeste 12 Noroeste 0 -- -- 49
2020-06-24 07:00:00 17 9 Noroeste 13 Norte 0 -- -- 42
2020-06-24 06:00:00 17.6 12 Noroeste 20 Noroeste 0 -- -- 54
2020-06-24 05:00:00 17.8 13 Noroeste 19 Noroeste 0 -- -- 56
2020-06-24 04:00:00 17.9 16 Noroeste 20 Noroeste 0 -- -- 65
2020-06-24 03:00:00 17.8 10 Noroeste 18 Noroeste 0 -- -- 53
2020-06-24 02:00:00 18.6 13 Noroeste 24 Noroeste 0 -- -- 56
2020-06-24 01:00:00 18.4 14 Noroeste 20 Noroeste 0 -- -- 64
2020-06-24 00:00:00 18.6 10 Norte 21 Noroeste 0 -- -- 58
2020-06-23 23:00:00 19 15 Noroeste 23 Noroeste 0 -- -- 70
2020-06-23 22:00:00 19.3 16 Noroeste 33 Oeste 0 -- -- 68
2020-06-23 21:00:00 20 19 Noroeste 30 Noroeste 0 -- -- 66
2020-06-23 20:00:00 22.6 16 Noroeste 30 Noroeste 0 -- -- 55
2020-06-23 19:00:00 24.7 18 Oeste 32 Oeste 0 -- -- 49
2020-06-23 18:00:00 26.4 19 Oeste 31 Noroeste 0 -- -- 43
2020-06-23 17:00:00 26.5 21 Noroeste 36 Oeste 0 -- -- 45
2020-06-23 16:00:00 26.7 15 Oeste 29 Sudoeste 0 -- -- 44
2020-06-23 15:00:00 27 15 Oeste 35 Oeste 0 -- -- 47
2020-06-23 14:00:00 26.5 21 Oeste 34 Oeste 0 -- -- 49
2020-06-23 13:00:00 26.2 14 Oeste 27 Sudoeste 0 -- -- 48
2020-06-23 12:00:00 25.3 12 Sudoeste 21 Sudoeste 0 -- -- 49
2020-06-23 11:00:00 23.9 13 Oeste 24 Oeste 0 -- -- 53
2020-06-23 10:00:00 22 16 Oeste 25 Oeste 0 -- -- 59
2020-06-23 09:00:00 20.5 10 Oeste 21 Noroeste 0 -- -- 63
2020-06-23 08:00:00 18.6 9 Noroeste 22 Noroeste 0 -- -- 59
2020-06-23 07:00:00 15.9 6 Norte 19 Noroeste 0 -- -- 47
2020-06-23 06:00:00 16.4 11 Noroeste 15 Noroeste 0 -- -- 68
2020-06-23 05:00:00 16.6 9 Noroeste 18 Noroeste 0 -- -- 60
2020-06-23 04:00:00 17.2 13 Noroeste 19 Noroeste 0 -- -- 67
2020-06-23 03:00:00 17.5 12 Noroeste 19 Noroeste 0 -- -- 64
2020-06-23 02:00:00 17.2 8 Noroeste 15 Noroeste 0 -- -- 71
2020-06-23 01:00:00 18 9 Noroeste 27 Noroeste 0 -- -- 66
2020-06-23 00:00:00 18.8 17 Noroeste 25 Noroeste 0 -- -- 70
2020-06-22 23:00:00 19.2 3 Nordeste 12 Nordeste 0 -- -- 64
2020-06-22 22:00:00 19.6 5 Nordeste 10 Noroeste 0 -- -- 65
2020-06-22 21:00:00 21.2 5 Oeste 10 Oeste 0 -- -- 66
2020-06-22 20:00:00 22.4 8 Oeste 19 Oeste 0 -- -- 67
2020-06-22 19:00:00 23.4 15 Oeste 21 Oeste 0 -- -- 63
2020-06-22 18:00:00 23.3 9 Sudoeste 17 Sudoeste 0 -- -- 64
2020-06-22 17:00:00 23.5 9 Sudoeste 20 Sur 0 -- -- 63
2020-06-22 16:00:00 23.1 10 Sur 21 Sur 0 -- -- 65
2020-06-22 15:00:00 23.2 13 Sudeste 25 Sudeste 0 -- -- 65
2020-06-22 14:00:00 23.5 14 Sudeste 24 Sur 0 -- -- 63
2020-06-22 13:00:00 23.3 11 Sudoeste 28 Oeste 0 -- -- 62
2020-06-22 12:00:00 23.5 12 Sudoeste 22 Sudoeste 0 -- -- 61
2020-06-22 11:00:00 22.6 15 Sudoeste 27 Oeste 0 -- -- 61
2020-06-22 10:00:00 22.1 16 Oeste 25 Oeste 0 -- -- 59
2020-06-22 09:00:00 21.5 11 Oeste 15 Oeste 0 -- -- 56
2020-06-22 08:00:00 19.5 9 Noroeste 14 Noroeste 0 -- -- 46
2020-06-22 07:00:00 17.7 12 Noroeste 15 Noroeste 0 -- -- 43
2020-06-22 06:00:00 15.7 5 Nordeste 15 Noroeste 0 -- -- 45
2020-06-22 05:00:00 16.7 10 Noroeste 17 Noroeste 0 -- -- 56
2020-06-22 04:00:00 17.5 9 Noroeste 14 Noroeste 0 -- -- 52
2020-06-22 03:00:00 17.5 0 Calma 11 Norte 0 -- -- 39
2020-06-22 02:00:00 17.5 3 Nordeste 12 Norte 0 -- -- 36
2020-06-22 01:00:00 17.6 5 Norte 10 Norte 0 -- -- 39
2020-06-22 00:00:00 17.7 3 Norte 8 Norte 0 -- -- 54
2020-06-21 23:00:00 18.1 4 Nordeste 9 Norte 0 -- -- 50
2020-06-21 22:00:00 18.8 2 Noroeste 5 Sur 0 -- -- 66
2020-06-21 21:00:00 20.1 4 Noroeste 11 Oeste 0 -- -- 75
2020-06-21 20:00:00 20.7 6 Sudoeste 14 Sur 0 -- -- 74
2020-06-21 19:00:00 21.4 7 Sur 22 Sudeste 0 -- -- 70
2020-06-21 18:00:00 22.3 12 Sudeste 27 Sudeste 0 -- -- 66
2020-06-21 17:00:00 22.7 15 Sudeste 29 Sudeste 0 -- -- 67
2020-06-21 16:00:00 22.8 18 Sudeste 31 Sudeste 0 -- -- 65
2020-06-21 15:00:00 22.9 20 Sudeste 33 Sudeste 0 -- -- 64
2020-06-21 14:00:00 23.1 21 Sudeste 34 Sudeste 0 -- -- 64
2020-06-21 13:00:00 22.6 22 Sudeste 33 Sudeste 0 -- -- 64
2020-06-21 12:00:00 22.4 18 Sudeste 31 Sudeste 0 -- -- 64
2020-06-21 11:00:00 22 16 Sudeste 28 Sudeste 0 -- -- 65
2020-06-21 10:00:00 21.9 8 Sudoeste 17 Oeste 0 -- -- 61
2020-06-21 09:00:00 19.7 11 Noroeste 21 Noroeste 0 -- -- 63
2020-06-21 08:00:00 17.8 8 Noroeste 16 Noroeste 0 -- -- 67
2020-06-21 07:00:00 15.2 10 Noroeste 13 Noroeste 0 -- -- 70
2020-06-21 06:00:00 15.7 9 Norte 16 Noroeste 0 -- -- 70
2020-06-21 05:00:00 16.1 13 Noroeste 17 Noroeste 0 -- -- 74
2020-06-21 04:00:00 16.7 12 Noroeste 24 Noroeste 0 -- -- 73
2020-06-21 03:00:00 16.7 14 Noroeste 21 Noroeste 0 -- -- 73
2020-06-21 02:00:00 17 9 Norte 27 Noroeste 0 -- -- 72
2020-06-21 01:00:00 17.4 16 Noroeste 24 Noroeste 0 -- -- 74
2020-06-21 00:00:00 17.9 15 Noroeste 23 Noroeste 0 -- -- 72
2020-06-20 23:00:00 18.2 14 Noroeste 25 Noroeste 0 -- -- 77
2020-06-20 22:00:00 19.2 17 Noroeste 30 Noroeste 0 -- -- 70
2020-06-20 21:00:00 19.7 15 Noroeste 25 Noroeste 0 -- -- 68
2020-06-20 20:00:00 20.7 15 Noroeste 27 Noroeste 0 -- -- 68
2020-06-20 19:00:00 22.5 13 Oeste 28 Sur 0 -- -- 59
2020-06-20 18:00:00 22.7 12 Oeste 32 Sur 0 -- -- 59
2020-06-20 17:00:00 21.7 17 Sur 37 Sur 0 -- -- 65
2020-06-20 16:00:00 22.7 15 Sudoeste 32 Sudeste 0 -- -- 62
2020-06-20 15:00:00 23.3 12 Sudoeste 32 Sudoeste 0 -- -- 60
2020-06-20 14:00:00 24.3 18 Sudoeste 30 Sudoeste 0 -- -- 57
2020-06-20 13:00:00 23.7 13 Oeste 30 Sur 0 -- -- 59
2020-06-20 12:00:00 23.1 18 Sur 39 Sudeste 0 -- -- 58
2020-06-20 11:00:00 23.1 16 Sur 26 Sudeste 0 -- -- 58
2020-06-20 10:00:00 21.9 7 Sur 16 Oeste 0 -- -- 59
2020-06-20 09:00:00 19.8 8 Noroeste 18 Oeste 0 -- -- 66
2020-06-20 08:00:00 16.2 10 Norte 14 Noroeste 0 -- -- 79
2020-06-20 07:00:00 16.1 11 Norte 16 Noroeste 0 -- -- 77
2020-06-20 06:00:00 16.3 13 Norte 19 Norte 0 -- -- 77
2020-06-20 05:00:00 17.1 9 Norte 17 Norte 0 -- -- 73
2020-06-20 04:00:00 16.7 12 Norte 21 Noroeste 0 -- -- 73
2020-06-20 03:00:00 17 13 Norte 18 Noroeste 0 -- -- 72
2020-06-20 02:00:00 16.5 12 Norte 17 Norte 0 -- -- 69
2020-06-20 01:00:00 17.1 8 Norte 15 Noroeste 0 -- -- 69
2020-06-20 00:00:00 17.6 12 Noroeste 17 Norte 0 -- -- 73
2020-06-19 23:00:00 18 9 Norte 17 Noroeste 0 -- -- 75
2020-06-19 22:00:00 18.6 7 Noroeste 16 Noroeste 0 -- -- 77
2020-06-19 21:00:00 19.5 4 Oeste 16 Sudoeste 0 -- -- 74
2020-06-19 20:00:00 20.6 6 Oeste 19 Sudeste 0 -- -- 70
2020-06-19 19:00:00 20.9 13 Sur 29 Sudeste 0 -- -- 70
2020-06-19 18:00:00 21.1 19 Sudeste 33 Sudeste 0 -- -- 72
2020-06-19 17:00:00 20.6 19 Sudeste 36 Sudeste 0 -- -- 75
2020-06-19 16:00:00 22.4 26 Sudeste 40 Sudeste 0 -- -- 68
2020-06-19 15:00:00 22.6 27 Sudeste 36 Sudeste 0 -- -- 72
2020-06-19 14:00:00 23.3 26 Sudeste 40 Sudeste 0 -- -- 63
2020-06-19 13:00:00 23 26 Sudeste 40 Sudeste 0 -- -- 67
2020-06-19 12:00:00 23.1 23 Sudeste 44 Sudeste 0 -- -- 60
2020-06-19 11:00:00 21.8 31 Sudeste 41 Sudeste 0 -- -- 65
2020-06-19 10:00:00 22.2 29 Sudeste 41 Sudeste 0 -- -- 53
2020-06-19 09:00:00 21.2 18 Sudeste 32 Sudeste 0 -- -- 69
2020-06-19 08:00:00 19.1 21 Sudeste 33 Sudeste 0 -- -- 64
2020-06-19 07:00:00 16.8 9 Nordeste 17 Sudeste 0 -- -- 76
2020-06-19 06:00:00 16.7 3 Norte 10 Norte 0 -- -- 80
2020-06-19 05:00:00 17.5 3 Sur 12 Sudeste 0 -- -- 80
2020-06-19 04:00:00 18 3 Nordeste 20 Este 0 -- -- 73
2020-06-19 03:00:00 18.8 4 Este 21 Este 0 -- -- 78
2020-06-19 02:00:00 18.5 5 Oeste 21 Oeste 0 -- -- 66
2020-06-19 01:00:00 17.2 9 Norte 11 Norte 0 -- -- 73
2020-06-19 00:00:00 17.1 5 Norte 10 Nordeste 0 -- -- 75
2020-06-18 23:00:00 18.7 8 Nordeste 13 Nordeste 0 -- -- 75
2020-06-18 22:00:00 19.6 3 Noroeste 20 Noroeste 0 -- -- 71
2020-06-18 21:00:00 21 12 Noroeste 39 Norte 0 -- -- 63
2020-06-18 20:00:00 22.2 23 Norte 40 Norte 0 -- -- 51
2020-06-18 19:00:00 24.4 14 Oeste 24 Norte 0 -- -- 51
2020-06-18 18:00:00 25.1 15 Nordeste 43 Norte 0 -- -- 43
2020-06-18 17:00:00 25.3 26 Norte 44 Norte 0 -- -- 46
2020-06-18 16:00:00 25.7 13 Noroeste 41 Norte 0 -- -- 49
2020-06-18 15:00:00 24.5 13 Oeste 25 Sudoeste 0 -- -- 56
2020-06-18 14:00:00 23.9 12 Sudoeste 26 Oeste 0 -- -- 57
2020-06-18 13:00:00 23.4 12 Sudoeste 24 Sur 0 -- -- 60
2020-06-18 12:00:00 21.7 9 Sur 21 Sur 0 -- -- 65
2020-06-18 11:00:00 22 9 Sudoeste 21 Sudoeste 0 -- -- 67
2020-06-18 10:00:00 21.4 10 Oeste 15 Sudoeste 0 -- -- 71
2020-06-18 09:00:00 19.9 10 Oeste 31 Norte 0 -- -- 82
2020-06-18 08:00:00 17.6 4 Norte 12 Noroeste 0 -- -- 89
2020-06-18 07:00:00 16.4 5 Nordeste 13 Norte 0 -- -- 89
2020-06-18 06:00:00 16 8 Nordeste 12 Norte 0 -- -- 90
2020-06-18 05:00:00 17.2 5 Nordeste 12 Nordeste 0 -- -- 89
2020-06-18 04:00:00 17.5 8 Este 17 Noroeste 0 -- -- 93
2020-06-18 03:00:00 17.7 8 Noroeste 23 Norte 0 -- -- 91
2020-06-18 02:00:00 18.3 5 Nordeste 11 Nordeste 0 -- -- 95
2020-06-18 01:00:00 18.5 4 Oeste 12 Oeste 0.6 -- -- 95
2020-06-18 00:00:00 18.4 3 Noroeste 15 Oeste 1.2 -- -- 96
2020-06-17 23:00:00 18.7 8 Oeste 15 Oeste 0.6 -- -- 98
2020-06-17 22:00:00 19 9 Sudoeste 16 Sudoeste 0.4 -- -- 98
2020-06-17 21:00:00 19.1 7 Oeste 12 Sudoeste 0.4 -- -- 97
2020-06-17 20:00:00 19.3 4 Oeste 12 Sudoeste 0 -- -- 95
2020-06-17 19:00:00 19.5 3 Oeste 10 Sur 0 -- -- 95
2020-06-17 18:00:00 19.9 4 Sudeste 14 Sur 0.2 -- -- 93
2020-06-17 17:00:00 20.2 9 Sudoeste 17 Sudoeste 0 -- -- 89
2020-06-17 16:00:00 21 6 Sudoeste 10 Sudoeste 0 -- -- 86
2020-06-17 15:00:00 20.2 5 Sudeste 16 Este 0 -- -- 92
2020-06-17 14:00:00 19.8 5 Este 17 Sudeste 0 -- -- 94
2020-06-17 13:00:00 20.8 7 Sudeste 17 Sur 0 -- -- 89
2020-06-17 12:00:00 20.6 6 Oeste 19 Noroeste 0 -- -- 89
2020-06-17 11:00:00 19.2 3 Sudoeste 12 Sur 0 -- -- 95
2020-06-17 10:00:00 18.9 2 Sudoeste 9 Oeste 0 -- -- 95
2020-06-17 09:00:00 18.9 5 Oeste 11 Sudoeste 0.2 -- -- 96
2020-06-17 08:00:00 19.3 4 Oeste 20 Oeste 0.2 -- -- 97
2020-06-17 07:00:00 19.5 3 Oeste 12 Sudoeste 0 -- -- 95
2020-06-17 06:00:00 19.7 9 Sudoeste 31 Sudoeste 0.2 -- -- 93
2020-06-17 05:00:00 21 12 Noroeste 57 Noroeste 0.8 -- -- 81
2020-06-17 04:00:00 21 8 Nordeste 21 Nordeste 0 -- -- 82
2020-06-17 03:00:00 21.9 9 Este 16 Este 0.2 -- -- 71
2020-06-17 02:00:00 22.7 5 Noroeste 58 Norte 0 -- -- 67
2020-06-17 01:00:00 23 31 Norte 77 Norte 0 -- -- 60
2020-06-17 00:00:00 23.9 55 Norte 82 Norte 0 -- -- 52
2020-06-16 23:00:00 25 24 Nordeste 78 Norte 0 -- -- 51
2020-06-16 22:00:00 26.9 43 Norte 100 Norte 0 -- -- 40
2020-06-16 21:00:00 27 27 Norte 57 Norte 0 -- -- 39
2020-06-16 20:00:00 25 16 Este 44 Norte 0 -- -- 63
2020-06-16 19:00:00 26 10 Este 55 Norte 0 -- -- 50
2020-06-16 18:00:00 26.6 23 Este 58 Norte 0 -- -- 45
2020-06-16 17:00:00 22.5 14 Oeste 35 Oeste 0 -- -- 75
2020-06-16 16:00:00 21.5 10 Sur 26 Sudeste 0 -- -- 77
2020-06-16 15:00:00 22.1 12 Sudeste 19 Sur 0 -- -- 75
2020-06-16 14:00:00 22.4 12 Sudeste 21 Sur 0 -- -- 80
2020-06-16 13:00:00 22.8 9 Sudeste 16 Sudeste 0 -- -- 77
2020-06-16 12:00:00 22.4 10 Sur 17 Sudeste 0 -- -- 75
2020-06-16 11:00:00 21.6 6 Sudeste 12 Sudeste 0 -- -- 86
2020-06-16 10:00:00 20.5 3 Norte 13 Sudeste 0 -- -- 90
2020-06-16 09:00:00 21.3 3 Sudeste 13 Este 0 -- -- 85
2020-06-16 08:00:00 20 5 Este 13 Norte 0 -- -- 86
2020-06-16 07:00:00 20.6 7 Noroeste 10 Norte 0 -- -- 66
2020-06-16 06:00:00 19.8 7 Norte 13 Norte 0 -- -- 69
2020-06-16 05:00:00 20.2 10 Noroeste 18 Norte 0 -- -- 70
2020-06-16 04:00:00 19.9 10 Norte 16 Noroeste 0 -- -- 74
2020-06-16 03:00:00 20 13 Noroeste 17 Noroeste 0 -- -- 74
2020-06-16 02:00:00 19.9 9 Noroeste 14 Noroeste 0 -- -- 80
2020-06-16 01:00:00 19.3 7 Noroeste 11 Norte 0 -- -- 86
2020-06-16 00:00:00 19.8 3 Noroeste 9 Oeste 0 -- -- 83
2020-06-15 23:00:00 20.4 4 Este 14 Norte 0 -- -- 81
2020-06-15 22:00:00 19.6 5 Noroeste 10 Sur 0 -- -- 93
2020-06-15 21:00:00 19.7 4 Oeste 10 Sudoeste 0 -- -- 93
2020-06-15 20:00:00 19.6 7 Sudoeste 16 Sudeste 0 -- -- 94
2020-06-15 19:00:00 20.3 11 Sudeste 17 Sudeste 0 -- -- 92
2020-06-15 18:00:00 20.9 6 Sudeste 12 Sudeste 0 -- -- 88
2020-06-15 17:00:00 20.4 8 Sur 17 Sudeste 0 -- -- 90
2020-06-15 16:00:00 20.8 8 Sur 16 Sur 0 -- -- 87
2020-06-15 15:00:00 21.4 8 Sur 24 Sudeste 0 -- -- 84
2020-06-15 14:00:00 21.2 6 Sur 21 Sudoeste 0 -- -- 84
2020-06-15 13:00:00 20.1 6 Sur 13 Sur 0 -- -- 89
2020-06-15 12:00:00 19.2 3 Sudeste 21 Sudeste 0 -- -- 92
2020-06-15 11:00:00 19.2 8 Sudeste 17 Sudeste 0 -- -- 93
2020-06-15 10:00:00 19.9 6 Sur 11 Sur 0 -- -- 85
2020-06-15 09:00:00 19.5 4 Noroeste 17 Noroeste 0 -- -- 81
2020-06-15 08:00:00 19 11 Oeste 18 Oeste 0 -- -- 84
2020-06-15 07:00:00 18.5 4 Noroeste 23 Norte 0 -- -- 82
2020-06-15 06:00:00 17.9 3 Norte 12 Noroeste 0 -- -- 89
2020-06-15 05:00:00 18 4 Sudeste 18 Sur 0.2 -- -- 89
2020-06-15 04:00:00 19.6 6 Sudoeste 28 Nordeste 0 -- -- 89
2020-06-15 03:00:00 18.5 3 Sudeste 9 Nordeste 0 -- -- 93
2020-06-15 02:00:00 18.5 0 Calma 8 Sudeste 0 -- -- 93
2020-06-15 01:00:00 18.4 5 Sudeste 9 Sudeste 0 -- -- 93
2020-06-15 00:00:00 18.4 4 Sudeste 9 Sur 0 -- -- 92
2020-06-14 23:00:00 18.4 4 Sudeste 11 Sudeste 0 -- -- 91
2020-06-14 22:00:00 18.4 4 Sudeste 11 Sudeste 0 -- -- 90
2020-06-14 21:00:00 18.6 8 Sudeste 12 Sudeste 0 -- -- 89
2020-06-14 20:00:00 18.7 6 Sudeste 9 Sudeste 0 -- -- 89
2020-06-14 19:00:00 19.3 6 Sudeste 17 Sudeste 0 -- -- 84
2020-06-14 18:00:00 20.4 9 Sudeste 17 Sudeste 0 -- -- 74
2020-06-14 17:00:00 20.7 6 Sudeste 22 Sur 0 -- -- 74
2020-06-14 16:00:00 20.3 8 Sur 20 Sur 0 -- -- 75
2020-06-14 15:00:00 22 10 Sudeste 21 Sur 0 -- -- 66
2020-06-14 14:00:00 22.6 12 Sur 22 Sur 0 -- -- 64
2020-06-14 13:00:00 21.7 13 Sur 22 Sur 0 -- -- 66
2020-06-14 12:00:00 22.5 12 Sudeste 20 Sudeste 0 -- -- 65
2020-06-14 11:00:00 22.3 9 Sudeste 18 Sur 0 -- -- 63
2020-06-14 10:00:00 21 9 Sudeste 14 Sudeste 0 -- -- 70
2020-06-14 09:00:00 19.7 8 Sudeste 11 Sudeste 0 -- -- 67
2020-06-14 08:00:00 17.2 0 Calma 18 Nordeste 0 -- -- 67
2020-06-14 07:00:00 14.7 10 Norte 13 Norte 0 -- -- 72
2020-06-14 06:00:00 15.9 7 Nordeste 16 Norte 0 -- -- 62
2020-06-14 05:00:00 15.9 12 Norte 18 Norte 0 -- -- 65
2020-06-14 04:00:00 15.7 4 Norte 20 Norte 0 -- -- 69
2020-06-14 03:00:00 16 14 Norte 20 Norte 0 -- -- 70
2020-06-14 02:00:00 16 11 Norte 14 Norte 0 -- -- 75
2020-06-14 01:00:00 17.1 9 Nordeste 14 Nordeste 0 -- -- 71
2020-06-14 00:00:00 17.5 2 Noroeste 5 Noroeste 0 -- -- 79
2020-06-13 23:00:00 18.2 2 Sur 8 Oeste 0 -- -- 79
2020-06-13 22:00:00 18.4 5 Oeste 13 Oeste 0 -- -- 78
2020-06-13 21:00:00 18.5 5 Sudoeste 11 Sudoeste 0 -- -- 78
2020-06-13 20:00:00 18.6 6 Sur 15 Sudeste 0 -- -- 76
2020-06-13 19:00:00 19.4 10 Sudeste 21 Sudeste 0 -- -- 74
2020-06-13 18:00:00 19.9 9 Sudeste 22 Sudeste 0 -- -- 70
2020-06-13 17:00:00 20.6 10 Sur 22 Sur 0 -- -- 66
2020-06-13 16:00:00 21.3 14 Sur 21 Sudeste 0 -- -- 62
2020-06-13 15:00:00 21.7 13 Sur 27 Sudeste 0 -- -- 57
2020-06-13 14:00:00 21.1 13 Sur 24 Sudeste 0 -- -- 67
2020-06-13 13:00:00 21.3 14 Sudeste 25 Sudeste 0 -- -- 63
2020-06-13 12:00:00 20.9 10 Sur 22 Sur 0 -- -- 59
2020-06-13 11:00:00 20.5 12 Sudeste 22 Sur 0 -- -- 68
2020-06-13 10:00:00 19.5 9 Sur 19 Sudeste 0 -- -- 65
2020-06-13 09:00:00 18.5 7 Este 17 Sudeste 0 -- -- 72
2020-06-13 08:00:00 16.4 3 Nordeste 15 Nordeste 0 -- -- 78
2020-06-13 07:00:00 15.4 11 Nordeste 18 Nordeste 0 -- -- 67
2020-06-13 06:00:00 14.9 12 Norte 15 Nordeste 0 -- -- 76
2020-06-13 05:00:00 15.6 8 Este 22 Nordeste 0 -- -- 78
2020-06-13 04:00:00 15 11 Norte 17 Nordeste 0 -- -- 77
2020-06-13 03:00:00 15.5 9 Nordeste 17 Norte 0 -- -- 73
2020-06-13 02:00:00 15.9 7 Noroeste 15 Noroeste 0 -- -- 74
2020-06-13 01:00:00 16.5 9 Norte 20 Noroeste 0 -- -- 72
2020-06-13 00:00:00 15.5 9 Noroeste 13 Noroeste 0 -- -- 70
2020-06-12 23:00:00 16.3 4 Norte 13 Norte 0 -- -- 71
2020-06-12 22:00:00 16.8 7 Norte 10 Nordeste 0 -- -- 73
2020-06-12 21:00:00 17.7 3 Oeste 10 Sudoeste 0 -- -- 73
2020-06-12 20:00:00 18.4 6 Oeste 13 Oeste 0 -- -- 71
2020-06-12 19:00:00 18.5 5 Sudeste 17 Sur 0 -- -- 72
2020-06-12 18:00:00 19.5 10 Sudeste 20 Sur 0 -- -- 65
2020-06-12 17:00:00 20.2 11 Sudeste 20 Sudeste 0 -- -- 64
2020-06-12 16:00:00 18.6 4 Oeste 19 Sur 0 -- -- 69
2020-06-12 15:00:00 19.3 13 Sudeste 22 Sur 0 -- -- 65
2020-06-12 14:00:00 19 7 Sur 17 Sur 0 -- -- 66
2020-06-12 13:00:00 18.5 11 Sur 21 Sur 0 -- -- 69
2020-06-12 12:00:00 19.3 5 Sur 16 Sur 0 -- -- 66
2020-06-12 11:00:00 19.3 9 Sudeste 14 Sudeste 0 -- -- 69
2020-06-12 10:00:00 19.9 9 Sudoeste 20 Sudoeste 0 -- -- 69
2020-06-12 09:00:00 18.9 4 Sudeste 9 Sudeste 0 -- -- 73
2020-06-12 08:00:00 16.7 3 Este 15 Norte 0 -- -- 74
2020-06-12 07:00:00 15.1 10 Nordeste 13 Norte 0 -- -- 79
2020-06-12 06:00:00 15.6 9 Nordeste 15 Nordeste 0 -- -- 81
2020-06-12 05:00:00 15.8 11 Nordeste 16 Nordeste 0 -- -- 79
2020-06-12 04:00:00 16 6 Noroeste 14 Noroeste 0 -- -- 85
2020-06-12 03:00:00 16.3 9 Noroeste 13 Noroeste 0 -- -- 85
2020-06-12 02:00:00 15.7 5 Noroeste 10 Norte 0 -- -- 85
2020-06-12 01:00:00 16.6 2 Este 5 Nordeste 0 -- -- 83
2020-06-12 00:00:00 16.6 2 Este 10 Noroeste 0 -- -- 83
2020-06-11 23:00:00 16.7 8 Noroeste 12 Noroeste 0 -- -- 84
2020-06-11 22:00:00 16.7 7 Noroeste 10 Noroeste 0 -- -- 84
2020-06-11 21:00:00 16.8 0 Calma 14 Sudeste 0 -- -- 85
2020-06-11 20:00:00 16.7 8 Sudeste 12 Sudeste 0 -- -- 86
2020-06-11 19:00:00 16.6 2 Sudeste 10 Sudeste 0 -- -- 87
2020-06-11 18:00:00 16.8 3 Norte 10 Sudeste 0 -- -- 85
2020-06-11 17:00:00 16.9 6 Sudeste 19 Sudeste 0 -- -- 84
2020-06-11 16:00:00 16.8 11 Sudeste 17 Sudeste 0 -- -- 86
2020-06-11 15:00:00 17 11 Sudeste 18 Sudeste 0 -- -- 86
2020-06-11 14:00:00 17.3 11 Sudeste 18 Sudeste 0 -- -- 83
2020-06-11 13:00:00 17.4 9 Sudeste 19 Sudeste 0 -- -- 82
2020-06-11 12:00:00 17.6 12 Sudeste 19 Sur 0 -- -- 81
2020-06-11 11:00:00 16.9 12 Sudeste 17 Sudeste 0 -- -- 83
2020-06-11 10:00:00 16.6 3 Este 12 Este 0 -- -- 86
2020-06-11 09:00:00 15.9 7 Este 15 Sudeste 0.2 -- -- 90
2020-06-11 08:00:00 15.7 4 Sudeste 10 Sudoeste 0 -- -- 92
2020-06-11 07:00:00 16 3 Norte 6 Norte 0 -- -- 89
2020-06-11 06:00:00 16.2 2 Este 12 Sudeste 0 -- -- 87
2020-06-11 05:00:00 16.1 9 Sudeste 22 Sudeste 0 -- -- 88
2020-06-11 04:00:00 15.9 15 Sudeste 21 Sudeste 0 -- -- 91
2020-06-11 03:00:00 16.5 5 Sudeste 17 Sur 0 -- -- 87
2020-06-11 02:00:00 16.8 6 Sudeste 13 Sudeste 0 -- -- 85
2020-06-11 01:00:00 16.8 6 Sur 14 Noroeste 0 -- -- 85
2020-06-11 00:00:00 16.8 6 Noroeste 12 Noroeste 0 -- -- 83